sensor_id;sensor_type;location;lat;lon;timestamp;temperature;humidity
4922;DHT22;16625;53.624;10.106;2023-06-04T00:00:29;10.40;99.90
4922;DHT22;16625;53.624;10.106;2023-06-04T00:02:56;9.20;99.90
4922;DHT22;16625;53.624;10.106;2023-06-04T00:05:23;9.20;1.00
4922;DHT22;16625;53.624;10.106;2023-06-04T00:07:51;10.20;1.00
4922;DHT22;16625;53.624;10.106;2023-06-04T00:10:18;9.70;1.00
4922;DHT22;16625;53.624;10.106;2023-06-04T00:12:46;9.10;70.40
4922;DHT22;16625;53.624;10.106;2023-06-04T00:15:14;10.40;99.90
4922;DHT22;16625;53.624;10.106;2023-06-04T00:17:42;10.00;99.90
4922;DHT22;16625;53.624;10.106;2023-06-04T00:20:10;9.50;99.90
4922;DHT22;16625;53.624;10.106;2023-06-04T00:22:37;9.00;99.90
4922;DHT22;16625;53.624;10.106;2023-06-04T00:25:07;9.00;1.00
4922;DHT22;16625;53.624;10.106;2023-06-04T00:27:34;9.00;1.00
4922;DHT22;16625;53.624;10.106;2023-06-04T00:30:03;9.90;1.00
4922;DHT22;16625;53.624;10.106;2023-06-04T00:32:30;8.90;1.00
4922;DHT22;16625;53.624;10.106;2023-06-04T00:34:57;10.50;1.00
4922;DHT22;16625;53.624;10.106;2023-06-04T00:37:24;10.40;1.00
4922;DHT22;16625;53.624;10.106;2023-06-04T00:39:51;10.80;19.80
4922;DHT22;16625;53.624;10.106;2023-06-04T00:42:18;10.80;99.90
4922;DHT22;16625;53.624;10.106;2023-06-04T00:44:45;8.80;99.90
4922;DHT22;16625;53.624;10.106;2023-06-04T00:47:15;8.70;99.90
4922;DHT22;16625;53.624;10.106;2023-06-04T00:49:42;8.70;99.90
4922;DHT22;16625;53.624;10.106;2023-06-04T00:52:09;10.40;99.90
4922;DHT22;16625;53.624;10.106;2023-06-04T00:54:37;9.60;99.90
4922;DHT22;16625;53.624;10.106;2023-06-04T00:57:05;8.50;1.00
4922;DHT22;16625;53.624;10.106;2023-06-04T00:59:36;8.40;1.00
4922;DHT22;16625;53.624;10.106;2023-06-04T01:02:07;10.50;99.90
4922;DHT22;16625;53.624;10.106;2023-06-04T01:04:44;9.30;99.90
4922;DHT22;16625;53.624;10.106;2023-06-04T01:07:14;9.90;1.00
4922;DHT22;16625;53.624;10.106;2023-06-04T01:09:44;9.60;1.00
4922;DHT22;16625;53.624;10.106;2023-06-04T01:12:12;9.60;1.00
4922;DHT22;16625;53.624;10.106;2023-06-04T01:14:38;8.30;27.20
4922;DHT22;16625;53.624;10.106;2023-06-04T01:17:10;9.30;22.00
4922;DHT22;16625;53.624;10.106;2023-06-04T01:20:05;8.30;1.00
4922;DHT22;16625;53.624;10.106;2023-06-04T01:22:37;8.30;78.30
4922;DHT22;16625;53.624;10.106;2023-06-04T01:25:09;8.20;99.90
4922;DHT22;16625;53.624;10.106;2023-06-04T01:27:50;8.20;99.90
4922;DHT22;16625;53.624;10.106;2023-06-04T01:30:20;8.20;99.90
4922;DHT22;16625;53.624;10.106;2023-06-04T01:32:47;8.30;99.90
4922;DHT22;16625;53.624;10.106;2023-06-04T01:35:15;9.80;92.90
4922;DHT22;16625;53.624;10.106;2023-06-04T01:37:42;8.10;91.30
4922;DHT22;16625;53.624;10.106;2023-06-04T01:40:10;9.00;1.00
4922;DHT22;16625;53.624;10.106;2023-06-04T01:42:37;8.10;1.00
4922;DHT22;16625;53.624;10.106;2023-06-04T01:45:05;8.10;1.00
4922;DHT22;16625;53.624;10.106;2023-06-04T01:47:32;8.30;1.00
4922;DHT22;16625;53.624;10.106;2023-06-04T01:49:59;8.40;99.90
4922;DHT22;16625;53.624;10.106;2023-06-04T01:52:27;8.20;99.90
4922;DHT22;16625;53.624;10.106;2023-06-04T01:54:54;8.10;99.90
4922;DHT22;16625;53.624;10.106;2023-06-04T01:57:21;8.00;99.90
4922;DHT22;16625;53.624;10.106;2023-06-04T01:59:48;8.00;1.00
4922;DHT22;16625;53.624;10.106;2023-06-04T02:02:16;8.30;1.00
4922;DHT22;16625;53.624;10.106;2023-06-04T02:04:44;7.90;69.80
4922;DHT22;16625;53.624;10.106;2023-06-04T02:07:12;8.70;99.90
4922;DHT22;16625;53.624;10.106;2023-06-04T02:09:44;7.70;99.90
4922;DHT22;16625;53.624;10.106;2023-06-04T02:12:11;7.70;99.90
4922;DHT22;16625;53.624;10.106;2023-06-04T02:14:38;7.70;1.00
4922;DHT22;16625;53.624;10.106;2023-06-04T02:17:05;9.10;1.00
4922;DHT22;16625;53.624;10.106;2023-06-04T02:19:38;7.70;1.00
4922;DHT22;16625;53.624;10.106;2023-06-04T02:22:05;7.70;99.90
4922;DHT22;16625;53.624;10.106;2023-06-04T02:24:32;7.70;99.90
4922;DHT22;16625;53.624;10.106;2023-06-04T02:27:00;8.90;99.90
4922;DHT22;16625;53.624;10.106;2023-06-04T02:29:27;7.80;99.90
4922;DHT22;16625;53.624;10.106;2023-06-04T02:31:54;9.60;27.00
4922;DHT22;16625;53.624;10.106;2023-06-04T02:34:21;10.10;1.00
4922;DHT22;16625;53.624;10.106;2023-06-04T02:36:49;7.90;1.00
4922;DHT22;16625;53.624;10.106;2023-06-04T02:39:16;7.80;1.00
4922;DHT22;16625;53.624;10.106;2023-06-04T02:41:43;8.80;77.60
4922;DHT22;16625;53.624;10.106;2023-06-04T02:44:11;7.60;99.90
4922;DHT22;16625;53.624;10.106;2023-06-04T02:46:38;7.60;99.90
4922;DHT22;16625;53.624;10.106;2023-06-04T02:49:05;8.80;99.90
4922;DHT22;16625;53.624;10.106;2023-06-04T02:51:32;7.50;1.00
4922;DHT22;16625;53.624;10.106;2023-06-04T02:53:59;9.00;1.00
4922;DHT22;16625;53.624;10.106;2023-06-04T02:56:26;8.50;1.00
4922;DHT22;16625;53.624;10.106;2023-06-04T02:58:54;7.60;1.00
4922;DHT22;16625;53.624;10.106;2023-06-04T03:01:23;7.90;1.00
4922;DHT22;16625;53.624;10.106;2023-06-04T03:03:51;8.90;1.00
4922;DHT22;16625;53.624;10.106;2023-06-04T03:06:18;7.60;1.00
4922;DHT22;16625;53.624;10.106;2023-06-04T03:08:46;7.70;1.00
4922;DHT22;16625;53.624;10.106;2023-06-04T03:11:13;7.90;99.90
4922;DHT22;16625;53.624;10.106;2023-06-04T03:13:40;9.80;12.60
4922;DHT22;16625;53.624;10.106;2023-06-04T03:16:07;8.40;1.00
4922;DHT22;16625;53.624;10.106;2023-06-04T03:18:37;7.80;1.00
4922;DHT22;16625;53.624;10.106;2023-06-04T03:21:04;7.80;1.00
4922;DHT22;16625;53.624;10.106;2023-06-04T03:23:31;8.70;14.40
4922;DHT22;16625;53.624;10.106;2023-06-04T03:25:58;8.70;99.90
4922;DHT22;16625;53.624;10.106;2023-06-04T03:28:25;9.70;99.90
4922;DHT22;16625;53.624;10.106;2023-06-04T03:30:52;8.60;99.90
4922;DHT22;16625;53.624;10.106;2023-06-04T03:33:19;7.70;99.90
4922;DHT22;16625;53.624;10.106;2023-06-04T03:35:47;8.90;99.90
4922;DHT22;16625;53.624;10.106;2023-06-04T03:38:15;9.00;1.00
4922;DHT22;16625;53.624;10.106;2023-06-04T03:40:43;8.40;1.00
4922;DHT22;16625;53.624;10.106;2023-06-04T03:43:10;7.70;1.00
4922;DHT22;16625;53.624;10.106;2023-06-04T03:45:37;7.70;1.00
4922;DHT22;16625;53.624;10.106;2023-06-04T03:48:04;7.70;1.00
4922;DHT22;16625;53.624;10.106;2023-06-04T03:50:31;7.70;1.00
4922;DHT22;16625;53.624;10.106;2023-06-04T03:52:59;10.00;1.00
4922;DHT22;16625;53.624;10.106;2023-06-04T03:55:26;9.20;1.00
4922;DHT22;16625;53.624;10.106;2023-06-04T03:57:53;9.50;99.90
4922;DHT22;16625;53.624;10.106;2023-06-04T04:00:20;8.20;1.00
4922;DHT22;16625;53.624;10.106;2023-06-04T04:02:48;10.40;99.90
4922;DHT22;16625;53.624;10.106;2023-06-04T04:05:15;8.40;99.90
4922;DHT22;16625;53.624;10.106;2023-06-04T04:07:42;8.40;99.90
4922;DHT22;16625;53.624;10.106;2023-06-04T04:10:10;9.40;50.20
4922;DHT22;16625;53.624;10.106;2023-06-04T04:12:37;8.60;1.00
4922;DHT22;16625;53.624;10.106;2023-06-04T04:15:05;10.90;1.00
4922;DHT22;16625;53.624;10.106;2023-06-04T04:17:32;9.00;99.90
4922;DHT22;16625;53.624;10.106;2023-06-04T04:19:59;9.10;99.90
4922;DHT22;16625;53.624;10.106;2023-06-04T04:22:27;11.00;18.60
4922;DHT22;16625;53.624;10.106;2023-06-04T04:24:53;10.30;99.90
4922;DHT22;16625;53.624;10.106;2023-06-04T04:27:22;9.10;69.30
4922;DHT22;16625;53.624;10.106;2023-06-04T04:29:49;9.90;1.00
4922;DHT22;16625;53.624;10.106;2023-06-04T04:32:16;10.40;1.00
4922;DHT22;16625;53.624;10.106;2023-06-04T04:34:50;10.70;1.00
4922;DHT22;16625;53.624;10.106;2023-06-04T04:37:18;9.50;1.00
4922;DHT22;16625;53.624;10.106;2023-06-04T04:39:46;11.20;1.00
4922;DHT22;16625;53.624;10.106;2023-06-04T04:42:15;9.50;1.00
4922;DHT22;16625;53.624;10.106;2023-06-04T04:44:43;10.60;99.90
4922;DHT22;16625;53.624;10.106;2023-06-04T04:47:13;10.60;99.90
4922;DHT22;16625;53.624;10.106;2023-06-04T04:49:40;9.70;99.90
4922;DHT22;16625;53.624;10.106;2023-06-04T04:52:07;9.90;99.90
4922;DHT22;16625;53.624;10.106;2023-06-04T04:54:34;10.90;99.90
4922;DHT22;16625;53.624;10.106;2023-06-04T04:57:01;10.20;1.00
4922;DHT22;16625;53.624;10.106;2023-06-04T04:59:28;11.00;1.00
4922;DHT22;16625;53.624;10.106;2023-06-04T05:01:56;10.90;99.90
4922;DHT22;16625;53.624;10.106;2023-06-04T05:04:23;10.20;1.00
4922;DHT22;16625;53.624;10.106;2023-06-04T05:06:49;11.30;1.00
4922;DHT22;16625;53.624;10.106;2023-06-04T05:09:16;12.00;1.00
4922;DHT22;16625;53.624;10.106;2023-06-04T05:11:43;11.80;1.00
4922;DHT22;16625;53.624;10.106;2023-06-04T05:14:10;10.40;1.00
4922;DHT22;16625;53.624;10.106;2023-06-04T05:16:37;11.00;99.90
4922;DHT22;16625;53.624;10.106;2023-06-04T05:19:07;10.70;23.10
4922;DHT22;16625;53.624;10.106;2023-06-04T05:21:36;11.10;16.20
4922;DHT22;16625;53.624;10.106;2023-06-04T05:24:03;10.70;99.90
4922;DHT22;16625;53.624;10.106;2023-06-04T05:26:30;10.70;50.50
4922;DHT22;16625;53.624;10.106;2023-06-04T05:28:58;12.50;88.00
4922;DHT22;16625;53.624;10.106;2023-06-04T05:31:26;11.30;66.30
4922;DHT22;16625;53.624;10.106;2023-06-04T05:33:53;11.30;75.90
4922;DHT22;16625;53.624;10.106;2023-06-04T05:36:21;11.20;48.10
4922;DHT22;16625;53.624;10.106;2023-06-04T05:38:48;11.70;99.90
4922;DHT22;16625;53.624;10.106;2023-06-04T05:41:23;12.90;34.70
4922;DHT22;16625;53.624;10.106;2023-06-04T05:43:51;12.10;1.00
4922;DHT22;16625;53.624;10.106;2023-06-04T05:46:18;11.30;1.00
4922;DHT22;16625;53.624;10.106;2023-06-04T05:48:45;12.60;1.00
4922;DHT22;16625;53.624;10.106;2023-06-04T05:51:13;11.70;1.00
4922;DHT22;16625;53.624;10.106;2023-06-04T05:53:42;12.60;99.90
4922;DHT22;16625;53.624;10.106;2023-06-04T05:56:08;12.20;99.90
4922;DHT22;16625;53.624;10.106;2023-06-04T05:58:35;12.60;99.90
4922;DHT22;16625;53.624;10.106;2023-06-04T06:01:03;11.80;99.90
4922;DHT22;16625;53.624;10.106;2023-06-04T06:03:30;13.60;10.90
4922;DHT22;16625;53.624;10.106;2023-06-04T06:05:57;12.20;1.00
4922;DHT22;16625;53.624;10.106;2023-06-04T06:08:26;12.20;99.90
4922;DHT22;16625;53.624;10.106;2023-06-04T06:10:54;12.30;99.90
4922;DHT22;16625;53.624;10.106;2023-06-04T06:13:21;13.80;99.90
4922;DHT22;16625;53.624;10.106;2023-06-04T06:15:48;12.60;99.10
4922;DHT22;16625;53.624;10.106;2023-06-04T06:18:15;13.50;1.00
4922;DHT22;16625;53.624;10.106;2023-06-04T06:20:42;14.00;1.00
4922;DHT22;16625;53.624;10.106;2023-06-04T06:23:09;12.70;1.00
4922;DHT22;16625;53.624;10.106;2023-06-04T06:25:35;13.80;1.00
4922;DHT22;16625;53.624;10.106;2023-06-04T06:28:05;13.70;99.90
4922;DHT22;16625;53.624;10.106;2023-06-04T06:30:32;13.00;99.90
4922;DHT22;16625;53.624;10.106;2023-06-04T06:32:58;13.10;99.90
4922;DHT22;16625;53.624;10.106;2023-06-04T06:35:25;14.20;99.90
4922;DHT22;16625;53.624;10.106;2023-06-04T06:37:52;14.10;99.90
4922;DHT22;16625;53.624;10.106;2023-06-04T06:40:19;13.50;99.90
4922;DHT22;16625;53.624;10.106;2023-06-04T06:42:48;14.90;1.00
4922;DHT22;16625;53.624;10.106;2023-06-04T06:45:18;14.80;5.00
4922;DHT22;16625;53.624;10.106;2023-06-04T06:47:45;13.70;1.00
4922;DHT22;16625;53.624;10.106;2023-06-04T06:50:12;14.90;1.00
4922;DHT22;16625;53.624;10.106;2023-06-04T06:52:39;15.40;1.00
4922;DHT22;16625;53.624;10.106;2023-06-04T06:55:07;14.10;99.90
4922;DHT22;16625;53.624;10.106;2023-06-04T06:57:34;14.20;99.90
4922;DHT22;16625;53.624;10.106;2023-06-04T07:00:01;15.80;99.90
4922;DHT22;16625;53.624;10.106;2023-06-04T07:02:29;14.40;1.00
4922;DHT22;16625;53.624;10.106;2023-06-04T07:04:56;15.50;1.00
4922;DHT22;16625;53.624;10.106;2023-06-04T07:07:23;15.00;1.00
4922;DHT22;16625;53.624;10.106;2023-06-04T07:09:50;15.90;1.00
4922;DHT22;16625;53.624;10.106;2023-06-04T07:12:17;14.90;1.00
4922;DHT22;16625;53.624;10.106;2023-06-04T07:14:44;15.20;1.00
4922;DHT22;16625;53.624;10.106;2023-06-04T07:17:11;15.60;99.90
4922;DHT22;16625;53.624;10.106;2023-06-04T07:19:39;15.90;99.90
4922;DHT22;16625;53.624;10.106;2023-06-04T07:22:06;15.20;99.90
4922;DHT22;16625;53.624;10.106;2023-06-04T07:24:33;15.80;99.90
4922;DHT22;16625;53.624;10.106;2023-06-04T07:27:00;15.30;99.90
4922;DHT22;16625;53.624;10.106;2023-06-04T07:29:27;16.10;99.90
4922;DHT22;16625;53.624;10.106;2023-06-04T07:31:54;15.50;99.90
4922;DHT22;16625;53.624;10.106;2023-06-04T07:34:21;16.10;99.90
4922;DHT22;16625;53.624;10.106;2023-06-04T07:36:49;16.50;99.90
4922;DHT22;16625;53.624;10.106;2023-06-04T07:39:16;17.00;99.90
4922;DHT22;16625;53.624;10.106;2023-06-04T07:41:43;16.00;99.90
4922;DHT22;16625;53.624;10.106;2023-06-04T07:44:10;16.80;99.90
4922;DHT22;16625;53.624;10.106;2023-06-04T07:46:37;17.60;99.90
4922;DHT22;16625;53.624;10.106;2023-06-04T07:49:03;17.30;99.90
4922;DHT22;16625;53.624;10.106;2023-06-04T07:51:30;16.70;99.90
4922;DHT22;16625;53.624;10.106;2023-06-04T07:53:59;16.40;99.90
4922;DHT22;16625;53.624;10.106;2023-06-04T07:56:26;16.60;99.90
4922;DHT22;16625;53.624;10.106;2023-06-04T07:58:53;16.70;99.90
4922;DHT22;16625;53.624;10.106;2023-06-04T08:01:20;17.00;99.90
4922;DHT22;16625;53.624;10.106;2023-06-04T08:03:49;17.40;99.90
4922;DHT22;16625;53.624;10.106;2023-06-04T08:06:16;16.90;99.90
4922;DHT22;16625;53.624;10.106;2023-06-04T08:08:43;17.00;99.90
4922;DHT22;16625;53.624;10.106;2023-06-04T08:11:14;17.10;99.90
4922;DHT22;16625;53.624;10.106;2023-06-04T08:13:41;16.90;99.90
4922;DHT22;16625;53.624;10.106;2023-06-04T08:16:09;17.00;99.90
4922;DHT22;16625;53.624;10.106;2023-06-04T08:18:38;17.20;99.90
4922;DHT22;16625;53.624;10.106;2023-06-04T08:21:05;17.30;99.90
4922;DHT22;16625;53.624;10.106;2023-06-04T08:23:32;17.30;99.90
4922;DHT22;16625;53.624;10.106;2023-06-04T08:25:59;17.50;99.90
4922;DHT22;16625;53.624;10.106;2023-06-04T08:28:30;17.70;99.90
4922;DHT22;16625;53.624;10.106;2023-06-04T08:30:57;17.80;99.90
4922;DHT22;16625;53.624;10.106;2023-06-04T08:33:24;17.80;99.90
4922;DHT22;16625;53.624;10.106;2023-06-04T08:35:50;18.20;99.90
4922;DHT22;16625;53.624;10.106;2023-06-04T08:38:17;18.00;99.90
4922;DHT22;16625;53.624;10.106;2023-06-04T08:40:44;18.00;99.90
4922;DHT22;16625;53.624;10.106;2023-06-04T08:43:12;18.10;99.90
4922;DHT22;16625;53.624;10.106;2023-06-04T08:45:43;18.20;99.90
4922;DHT22;16625;53.624;10.106;2023-06-04T08:48:12;18.10;99.90
4922;DHT22;16625;53.624;10.106;2023-06-04T08:50:42;18.30;99.90
4922;DHT22;16625;53.624;10.106;2023-06-04T08:53:11;18.60;99.90
4922;DHT22;16625;53.624;10.106;2023-06-04T08:55:40;18.70;99.90
4922;DHT22;16625;53.624;10.106;2023-06-04T08:58:09;18.80;99.90
4922;DHT22;16625;53.624;10.106;2023-06-04T09:00:37;19.00;99.90
4922;DHT22;16625;53.624;10.106;2023-06-04T09:03:06;19.00;99.90
4922;DHT22;16625;53.624;10.106;2023-06-04T09:05:33;19.00;99.90
4922;DHT22;16625;53.624;10.106;2023-06-04T09:08:02;18.80;99.90
4922;DHT22;16625;53.624;10.106;2023-06-04T09:10:32;19.00;99.90
4922;DHT22;16625;53.624;10.106;2023-06-04T09:13:01;19.00;99.90
4922;DHT22;16625;53.624;10.106;2023-06-04T09:15:29;19.00;99.90
4922;DHT22;16625;53.624;10.106;2023-06-04T09:17:56;19.30;99.90
4922;DHT22;16625;53.624;10.106;2023-06-04T09:20:25;19.30;99.90
4922;DHT22;16625;53.624;10.106;2023-06-04T09:22:52;19.60;99.90
4922;DHT22;16625;53.624;10.106;2023-06-04T09:25:48;19.70;99.90
4922;DHT22;16625;53.624;10.106;2023-06-04T09:28:43;19.70;99.90
4922;DHT22;16625;53.624;10.106;2023-06-04T09:31:19;19.80;99.90
4922;DHT22;16625;53.624;10.106;2023-06-04T09:33:55;18.90;99.90
4922;DHT22;16625;53.624;10.106;2023-06-04T09:36:32;19.90;99.90
4922;DHT22;16625;53.624;10.106;2023-06-04T09:39:23;19.80;99.90
4922;DHT22;16625;53.624;10.106;2023-06-04T09:41:58;18.80;99.90
4922;DHT22;16625;53.624;10.106;2023-06-04T09:44:26;19.20;99.90
4922;DHT22;16625;53.624;10.106;2023-06-04T09:46:56;19.60;99.90
4922;DHT22;16625;53.624;10.106;2023-06-04T09:49:23;19.80;99.90
4922;DHT22;16625;53.624;10.106;2023-06-04T09:51:51;19.90;99.90
4922;DHT22;16625;53.624;10.106;2023-06-04T09:54:18;20.10;99.90
4922;DHT22;16625;53.624;10.106;2023-06-04T09:56:45;20.40;99.90
4922;DHT22;16625;53.624;10.106;2023-06-04T09:59:13;20.30;99.90
4922;DHT22;16625;53.624;10.106;2023-06-04T10:01:41;20.50;99.90
4922;DHT22;16625;53.624;10.106;2023-06-04T10:04:09;20.10;99.90
4922;DHT22;16625;53.624;10.106;2023-06-04T10:06:38;20.30;99.90
4922;DHT22;16625;53.624;10.106;2023-06-04T10:09:08;20.60;99.90
4922;DHT22;16625;53.624;10.106;2023-06-04T10:11:37;20.60;99.90
4922;DHT22;16625;53.624;10.106;2023-06-04T10:14:10;20.20;99.90
4922;DHT22;16625;53.624;10.106;2023-06-04T10:16:41;19.90;99.90
4922;DHT22;16625;53.624;10.106;2023-06-04T10:19:09;19.90;99.90
4922;DHT22;16625;53.624;10.106;2023-06-04T10:21:37;19.90;99.90
4922;DHT22;16625;53.624;10.106;2023-06-04T10:24:05;20.20;99.90
4922;DHT22;16625;53.624;10.106;2023-06-04T10:26:34;20.50;99.90
4922;DHT22;16625;53.624;10.106;2023-06-04T10:29:02;20.70;99.90
4922;DHT22;16625;53.624;10.106;2023-06-04T10:31:29;20.50;99.90
4922;DHT22;16625;53.624;10.106;2023-06-04T10:33:56;20.40;99.90
4922;DHT22;16625;53.624;10.106;2023-06-04T10:36:24;20.60;99.90
4922;DHT22;16625;53.624;10.106;2023-06-04T10:38:52;20.60;99.90
4922;DHT22;16625;53.624;10.106;2023-06-04T10:41:20;20.10;99.90
4922;DHT22;16625;53.624;10.106;2023-06-04T10:43:50;20.20;99.90
4922;DHT22;16625;53.624;10.106;2023-06-04T10:46:18;20.20;99.90
4922;DHT22;16625;53.624;10.106;2023-06-04T10:48:48;20.40;99.90
4922;DHT22;16625;53.624;10.106;2023-06-04T10:51:16;20.70;99.90
4922;DHT22;16625;53.624;10.106;2023-06-04T10:53:43;20.80;99.90
4922;DHT22;16625;53.624;10.106;2023-06-04T10:56:10;20.80;99.90
4922;DHT22;16625;53.624;10.106;2023-06-04T10:58:37;20.40;99.90
4922;DHT22;16625;53.624;10.106;2023-06-04T11:01:05;20.50;99.90
4922;DHT22;16625;53.624;10.106;2023-06-04T11:03:36;20.80;99.90
4922;DHT22;16625;53.624;10.106;2023-06-04T11:06:14;21.00;99.90
4922;DHT22;16625;53.624;10.106;2023-06-04T11:08:41;21.30;99.90
4922;DHT22;16625;53.624;10.106;2023-06-04T11:11:11;21.10;99.90
4922;DHT22;16625;53.624;10.106;2023-06-04T11:13:37;20.90;99.90
4922;DHT22;16625;53.624;10.106;2023-06-04T11:16:15;21.00;99.90
4922;DHT22;16625;53.624;10.106;2023-06-04T11:18:42;21.10;99.90
4922;DHT22;16625;53.624;10.106;2023-06-04T11:21:09;21.10;99.90
4922;DHT22;16625;53.624;10.106;2023-06-04T11:23:40;21.00;99.90
4922;DHT22;16625;53.624;10.106;2023-06-04T11:26:08;21.10;99.90
4922;DHT22;16625;53.624;10.106;2023-06-04T11:28:35;21.50;99.90
4922;DHT22;16625;53.624;10.106;2023-06-04T11:31:02;21.60;99.90
4922;DHT22;16625;53.624;10.106;2023-06-04T11:33:41;21.80;99.90
4922;DHT22;16625;53.624;10.106;2023-06-04T11:36:09;21.70;99.90
4922;DHT22;16625;53.624;10.106;2023-06-04T11:38:36;21.10;99.90
4922;DHT22;16625;53.624;10.106;2023-06-04T11:41:03;20.80;99.90
4922;DHT22;16625;53.624;10.106;2023-06-04T11:43:32;21.00;99.90
4922;DHT22;16625;53.624;10.106;2023-06-04T11:46:05;21.10;99.90
4922;DHT22;16625;53.624;10.106;2023-06-04T11:48:33;21.30;99.90
4922;DHT22;16625;53.624;10.106;2023-06-04T11:51:06;21.10;99.90
4922;DHT22;16625;53.624;10.106;2023-06-04T11:53:35;21.20;99.90
4922;DHT22;16625;53.624;10.106;2023-06-04T11:56:04;21.00;99.90
4922;DHT22;16625;53.624;10.106;2023-06-04T11:58:31;21.00;99.90
4922;DHT22;16625;53.624;10.106;2023-06-04T12:00:59;21.30;99.90
4922;DHT22;16625;53.624;10.106;2023-06-04T12:03:38;21.60;99.90
4922;DHT22;16625;53.624;10.106;2023-06-04T12:06:12;21.80;99.90
4922;DHT22;16625;53.624;10.106;2023-06-04T12:08:49;22.00;99.90
4922;DHT22;16625;53.624;10.106;2023-06-04T12:11:28;21.90;99.90
4922;DHT22;16625;53.624;10.106;2023-06-04T12:13:57;21.90;99.90
4922;DHT22;16625;53.624;10.106;2023-06-04T12:16:24;22.00;99.90
4922;DHT22;16625;53.624;10.106;2023-06-04T12:19:03;22.20;99.90
4922;DHT22;16625;53.624;10.106;2023-06-04T12:21:32;21.90;99.90
4922;DHT22;16625;53.624;10.106;2023-06-04T12:24:06;21.90;99.90
4922;DHT22;16625;53.624;10.106;2023-06-04T12:26:33;22.00;99.90
4922;DHT22;16625;53.624;10.106;2023-06-04T12:29:07;22.10;99.90
4922;DHT22;16625;53.624;10.106;2023-06-04T12:31:35;21.90;99.90
4922;DHT22;16625;53.624;10.106;2023-06-04T12:34:04;22.00;99.90
4922;DHT22;16625;53.624;10.106;2023-06-04T12:36:31;22.20;99.90
4922;DHT22;16625;53.624;10.106;2023-06-04T12:39:00;22.40;99.90
4922;DHT22;16625;53.624;10.106;2023-06-04T12:41:27;22.30;99.90
4922;DHT22;16625;53.624;10.106;2023-06-04T12:43:55;22.50;99.90
4922;DHT22;16625;53.624;10.106;2023-06-04T12:46:22;22.70;99.90
4922;DHT22;16625;53.624;10.106;2023-06-04T12:48:50;22.60;99.90
4922;DHT22;16625;53.624;10.106;2023-06-04T12:51:19;22.40;99.90
4922;DHT22;16625;53.624;10.106;2023-06-04T12:53:46;22.70;99.90
4922;DHT22;16625;53.624;10.106;2023-06-04T12:56:13;22.80;99.90
4922;DHT22;16625;53.624;10.106;2023-06-04T12:58:40;23.10;99.90
4922;DHT22;16625;53.624;10.106;2023-06-04T13:01:07;23.20;99.90
4922;DHT22;16625;53.624;10.106;2023-06-04T13:03:36;23.00;99.90
4922;DHT22;16625;53.624;10.106;2023-06-04T13:06:03;23.20;99.90
4922;DHT22;16625;53.624;10.106;2023-06-04T13:08:32;22.90;99.90
4922;DHT22;16625;53.624;10.106;2023-06-04T13:10:59;22.80;99.90
4922;DHT22;16625;53.624;10.106;2023-06-04T13:13:27;22.30;99.90
4922;DHT22;16625;53.624;10.106;2023-06-04T13:15:54;22.40;99.90
4922;DHT22;16625;53.624;10.106;2023-06-04T13:18:21;22.40;99.90
4922;DHT22;16625;53.624;10.106;2023-06-04T13:20:48;22.40;99.90
4922;DHT22;16625;53.624;10.106;2023-06-04T13:23:15;22.60;99.90
4922;DHT22;16625;53.624;10.106;2023-06-04T13:25:44;22.60;99.90
4922;DHT22;16625;53.624;10.106;2023-06-04T13:28:11;22.50;99.90
4922;DHT22;16625;53.624;10.106;2023-06-04T13:30:38;22.30;99.90
4922;DHT22;16625;53.624;10.106;2023-06-04T13:33:05;22.30;99.90
4922;DHT22;16625;53.624;10.106;2023-06-04T13:35:32;22.50;99.90
4922;DHT22;16625;53.624;10.106;2023-06-04T13:37:59;22.50;99.90
4922;DHT22;16625;53.624;10.106;2023-06-04T13:40:26;22.40;99.90
4922;DHT22;16625;53.624;10.106;2023-06-04T13:42:54;22.40;99.90
4922;DHT22;16625;53.624;10.106;2023-06-04T13:45:21;22.60;99.90
4922;DHT22;16625;53.624;10.106;2023-06-04T13:47:48;22.80;99.90
4922;DHT22;16625;53.624;10.106;2023-06-04T13:50:15;23.00;99.90
4922;DHT22;16625;53.624;10.106;2023-06-04T13:52:43;23.10;99.90
4922;DHT22;16625;53.624;10.106;2023-06-04T13:55:11;23.00;99.90
4922;DHT22;16625;53.624;10.106;2023-06-04T13:57:38;22.90;99.90
4922;DHT22;16625;53.624;10.106;2023-06-04T14:00:08;22.90;99.90
4922;DHT22;16625;53.624;10.106;2023-06-04T14:02:35;22.40;99.90
4922;DHT22;16625;53.624;10.106;2023-06-04T14:05:02;22.60;99.90
4922;DHT22;16625;53.624;10.106;2023-06-04T14:07:29;22.80;99.90
4922;DHT22;16625;53.624;10.106;2023-06-04T14:09:56;22.60;99.90
4922;DHT22;16625;53.624;10.106;2023-06-04T14:12:23;22.40;99.90
4922;DHT22;16625;53.624;10.106;2023-06-04T14:14:50;22.40;99.90
4922;DHT22;16625;53.624;10.106;2023-06-04T14:17:18;22.50;99.90
4922;DHT22;16625;53.624;10.106;2023-06-04T14:19:45;22.70;99.90
4922;DHT22;16625;53.624;10.106;2023-06-04T14:22:12;22.80;99.90
4922;DHT22;16625;53.624;10.106;2023-06-04T14:24:40;22.50;99.90
4922;DHT22;16625;53.624;10.106;2023-06-04T14:27:07;22.30;99.90
4922;DHT22;16625;53.624;10.106;2023-06-04T14:29:35;22.30;99.90
4922;DHT22;16625;53.624;10.106;2023-06-04T14:32:02;22.50;99.90
4922;DHT22;16625;53.624;10.106;2023-06-04T14:34:30;22.60;99.90
4922;DHT22;16625;53.624;10.106;2023-06-04T14:36:58;22.60;99.90
4922;DHT22;16625;53.624;10.106;2023-06-04T14:39:25;22.40;99.90
4922;DHT22;16625;53.624;10.106;2023-06-04T14:41:52;22.40;99.90
4922;DHT22;16625;53.624;10.106;2023-06-04T14:44:19;22.50;99.90
4922;DHT22;16625;53.624;10.106;2023-06-04T14:46:48;22.80;99.90
4922;DHT22;16625;53.624;10.106;2023-06-04T14:49:15;22.80;99.90
4922;DHT22;16625;53.624;10.106;2023-06-04T14:51:43;22.60;99.90
4922;DHT22;16625;53.624;10.106;2023-06-04T14:54:10;23.10;99.90
4922;DHT22;16625;53.624;10.106;2023-06-04T14:56:37;22.70;99.90
4922;DHT22;16625;53.624;10.106;2023-06-04T14:59:03;22.80;99.90
4922;DHT22;16625;53.624;10.106;2023-06-04T15:01:34;22.90;99.90
4922;DHT22;16625;53.624;10.106;2023-06-04T15:04:02;23.30;99.90
4922;DHT22;16625;53.624;10.106;2023-06-04T15:06:29;23.40;99.90
4922;DHT22;16625;53.624;10.106;2023-06-04T15:08:57;23.30;99.90
4922;DHT22;16625;53.624;10.106;2023-06-04T15:11:24;23.30;99.90
4922;DHT22;16625;53.624;10.106;2023-06-04T15:13:52;23.30;99.90
4922;DHT22;16625;53.624;10.106;2023-06-04T15:16:19;23.30;99.90
4922;DHT22;16625;53.624;10.106;2023-06-04T15:18:46;23.30;99.90
4922;DHT22;16625;53.624;10.106;2023-06-04T15:21:15;23.00;99.90
4922;DHT22;16625;53.624;10.106;2023-06-04T15:23:43;23.00;99.90
4922;DHT22;16625;53.624;10.106;2023-06-04T15:26:15;22.30;99.90
4922;DHT22;16625;53.624;10.106;2023-06-04T15:28:43;22.20;99.90
4922;DHT22;16625;53.624;10.106;2023-06-04T15:31:10;22.10;99.90
4922;DHT22;16625;53.624;10.106;2023-06-04T15:33:37;22.10;99.90
4922;DHT22;16625;53.624;10.106;2023-06-04T15:36:04;22.40;99.90
4922;DHT22;16625;53.624;10.106;2023-06-04T15:38:31;22.40;99.90
4922;DHT22;16625;53.624;10.106;2023-06-04T15:40:59;22.40;99.90
4922;DHT22;16625;53.624;10.106;2023-06-04T15:43:27;22.60;99.90